sensor_id;sensor_type;location;lat;lon;timestamp;temperature;humidity
17571;DHT22;8903;52.220;20.978;2023-06-01T00:02:00;14.90;92.10
17571;DHT22;8903;52.220;20.978;2023-06-01T00:04:27;14.90;92.20
17571;DHT22;8903;52.220;20.978;2023-06-01T00:06:54;14.80;92.20
17571;DHT22;8903;52.220;20.978;2023-06-01T00:09:23;14.80;92.40
17571;DHT22;8903;52.220;20.978;2023-06-01T00:11:50;14.80;92.20
17571;DHT22;8903;52.220;20.978;2023-06-01T00:14:17;14.70;92.20
17571;DHT22;8903;52.220;20.978;2023-06-01T00:16:44;14.70;92.10
17571;DHT22;8903;52.220;20.978;2023-06-01T00:19:11;14.70;92.10
17571;DHT22;8903;52.220;20.978;2023-06-01T00:21:38;14.70;92.30
17571;DHT22;8903;52.220;20.978;2023-06-01T00:24:07;14.60;92.30
17571;DHT22;8903;52.220;20.978;2023-06-01T00:26:35;14.60;92.20
17571;DHT22;8903;52.220;20.978;2023-06-01T00:29:02;14.60;92.20
17571;DHT22;8903;52.220;20.978;2023-06-01T00:31:29;14.60;92.60
17571;DHT22;8903;52.220;20.978;2023-06-01T00:33:56;14.60;92.40
17571;DHT22;8903;52.220;20.978;2023-06-01T00:36:23;14.50;92.50
17571;DHT22;8903;52.220;20.978;2023-06-01T00:38:50;14.60;92.50
17571;DHT22;8903;52.220;20.978;2023-06-01T00:41:17;14.60;92.50
17571;DHT22;8903;52.220;20.978;2023-06-01T00:43:45;14.60;92.50
17571;DHT22;8903;52.220;20.978;2023-06-01T00:46:13;14.50;92.50
17571;DHT22;8903;52.220;20.978;2023-06-01T00:48:40;14.50;92.60
17571;DHT22;8903;52.220;20.978;2023-06-01T00:51:07;14.50;92.50
17571;DHT22;8903;52.220;20.978;2023-06-01T00:53:34;14.50;92.40
17571;DHT22;8903;52.220;20.978;2023-06-01T00:56:01;14.50;92.40
17571;DHT22;8903;52.220;20.978;2023-06-01T00:58:30;14.50;92.40
17571;DHT22;8903;52.220;20.978;2023-06-01T01:00:59;14.40;92.40
17571;DHT22;8903;52.220;20.978;2023-06-01T01:03:27;14.40;92.40
17571;DHT22;8903;52.220;20.978;2023-06-01T01:06:06;14.30;92.20
17571;DHT22;8903;52.220;20.978;2023-06-01T01:08:50;14.30;92.30
17571;DHT22;8903;52.220;20.978;2023-06-01T01:11:23;14.20;92.40
17571;DHT22;8903;52.220;20.978;2023-06-01T01:13:55;14.20;92.50
17571;DHT22;8903;52.220;20.978;2023-06-01T01:16:28;14.20;92.50
17571;DHT22;8903;52.220;20.978;2023-06-01T01:19:00;14.20;92.50
17571;DHT22;8903;52.220;20.978;2023-06-01T01:21:32;14.20;92.70
17571;DHT22;8903;52.220;20.978;2023-06-01T01:24:21;14.10;92.70
17571;DHT22;8903;52.220;20.978;2023-06-01T01:27:11;14.20;92.60
17571;DHT22;8903;52.220;20.978;2023-06-01T01:29:44;14.10;92.60
17571;DHT22;8903;52.220;20.978;2023-06-01T01:32:12;14.10;92.50
17571;DHT22;8903;52.220;20.978;2023-06-01T01:34:40;14.10;92.60
17571;DHT22;8903;52.220;20.978;2023-06-01T01:37:09;14.10;92.50
17571;DHT22;8903;52.220;20.978;2023-06-01T01:39:36;14.10;92.60
17571;DHT22;8903;52.220;20.978;2023-06-01T01:42:03;14.10;92.70
17571;DHT22;8903;52.220;20.978;2023-06-01T01:44:31;14.10;92.60
17571;DHT22;8903;52.220;20.978;2023-06-01T01:47:07;14.00;92.50
17571;DHT22;8903;52.220;20.978;2023-06-01T01:49:42;14.00;92.60
17571;DHT22;8903;52.220;20.978;2023-06-01T01:52:13;14.00;92.70
17571;DHT22;8903;52.220;20.978;2023-06-01T01:54:43;14.00;92.70
17571;DHT22;8903;52.220;20.978;2023-06-01T01:57:12;13.90;92.80
17571;DHT22;8903;52.220;20.978;2023-06-01T01:59:39;13.90;92.80
17571;DHT22;8903;52.220;20.978;2023-06-01T02:02:09;13.90;92.70
17571;DHT22;8903;52.220;20.978;2023-06-01T02:04:38;13.90;92.70
17571;DHT22;8903;52.220;20.978;2023-06-01T02:07:07;13.90;92.70
17571;DHT22;8903;52.220;20.978;2023-06-01T02:09:34;13.80;92.70
17571;DHT22;8903;52.220;20.978;2023-06-01T02:12:03;13.80;92.60
17571;DHT22;8903;52.220;20.978;2023-06-01T02:14:32;13.80;92.80
17571;DHT22;8903;52.220;20.978;2023-06-01T02:16:59;13.70;92.70
17571;DHT22;8903;52.220;20.978;2023-06-01T02:19:28;13.70;92.70
17571;DHT22;8903;52.220;20.978;2023-06-01T02:21:56;13.70;92.60
17571;DHT22;8903;52.220;20.978;2023-06-01T02:24:23;13.70;92.80
17571;DHT22;8903;52.220;20.978;2023-06-01T02:26:50;13.70;92.70
17571;DHT22;8903;52.220;20.978;2023-06-01T02:29:19;13.70;92.70
17571;DHT22;8903;52.220;20.978;2023-06-01T02:31:47;13.70;92.90
17571;DHT22;8903;52.220;20.978;2023-06-01T02:34:14;13.60;92.80
17571;DHT22;8903;52.220;20.978;2023-06-01T02:36:43;13.70;92.80
17571;DHT22;8903;52.220;20.978;2023-06-01T02:39:10;13.70;92.70
17571;DHT22;8903;52.220;20.978;2023-06-01T02:41:38;13.60;92.70
17571;DHT22;8903;52.220;20.978;2023-06-01T02:44:05;13.60;92.90
17571;DHT22;8903;52.220;20.978;2023-06-01T02:46:32;13.70;92.90
17571;DHT22;8903;52.220;20.978;2023-06-01T02:49:00;13.60;92.90
17571;DHT22;8903;52.220;20.978;2023-06-01T02:51:27;13.60;93.10
17571;DHT22;8903;52.220;20.978;2023-06-01T02:54:23;13.60;92.70
17571;DHT22;8903;52.220;20.978;2023-06-01T02:56:51;13.70;92.80
17571;DHT22;8903;52.220;20.978;2023-06-01T02:59:25;13.70;93.20
17571;DHT22;8903;52.220;20.978;2023-06-01T03:01:59;13.70;92.70
17571;DHT22;8903;52.220;20.978;2023-06-01T03:04:27;13.70;92.80
17571;DHT22;8903;52.220;20.978;2023-06-01T03:06:55;13.70;92.80
17571;DHT22;8903;52.220;20.978;2023-06-01T03:09:28;13.70;92.70
17571;DHT22;8903;52.220;20.978;2023-06-01T03:12:04;13.70;92.80
17571;DHT22;8903;52.220;20.978;2023-06-01T03:14:33;13.70;92.90
17571;DHT22;8903;52.220;20.978;2023-06-01T03:17:00;13.80;92.80
17571;DHT22;8903;52.220;20.978;2023-06-01T03:19:27;13.80;92.80
17571;DHT22;8903;52.220;20.978;2023-06-01T03:21:57;13.80;92.80
17571;DHT22;8903;52.220;20.978;2023-06-01T03:24:24;13.80;92.70
17571;DHT22;8903;52.220;20.978;2023-06-01T03:26:54;13.90;92.70
17571;DHT22;8903;52.220;20.978;2023-06-01T03:29:22;13.90;92.90
17571;DHT22;8903;52.220;20.978;2023-06-01T03:31:49;13.90;92.80
17571;DHT22;8903;52.220;20.978;2023-06-01T03:34:19;14.00;92.80
17571;DHT22;8903;52.220;20.978;2023-06-01T03:36:47;14.00;92.70
17571;DHT22;8903;52.220;20.978;2023-06-01T03:39:14;14.10;92.80
17571;DHT22;8903;52.220;20.978;2023-06-01T03:41:42;14.10;92.90
17571;DHT22;8903;52.220;20.978;2023-06-01T03:44:12;14.20;92.90
17571;DHT22;8903;52.220;20.978;2023-06-01T03:46:39;14.20;93.00
17571;DHT22;8903;52.220;20.978;2023-06-01T03:49:07;14.30;93.00
17571;DHT22;8903;52.220;20.978;2023-06-01T03:51:34;14.30;93.00
17571;DHT22;8903;52.220;20.978;2023-06-01T03:54:01;14.40;92.90
17571;DHT22;8903;52.220;20.978;2023-06-01T03:56:28;14.50;93.00
17571;DHT22;8903;52.220;20.978;2023-06-01T03:58:59;14.60;93.00
17571;DHT22;8903;52.220;20.978;2023-06-01T04:01:28;14.60;93.00
17571;DHT22;8903;52.220;20.978;2023-06-01T04:03:56;14.70;93.10
17571;DHT22;8903;52.220;20.978;2023-06-01T04:06:23;14.70;93.50
17571;DHT22;8903;52.220;20.978;2023-06-01T04:08:50;14.80;93.20
17571;DHT22;8903;52.220;20.978;2023-06-01T04:11:24;14.80;93.70
17571;DHT22;8903;52.220;20.978;2023-06-01T04:13:52;14.90;93.30
17571;DHT22;8903;52.220;20.978;2023-06-01T04:16:20;15.00;93.40
17571;DHT22;8903;52.220;20.978;2023-06-01T04:18:49;15.00;93.30
17571;DHT22;8903;52.220;20.978;2023-06-01T04:21:20;15.10;93.30
17571;DHT22;8903;52.220;20.978;2023-06-01T04:23:48;15.20;93.30
17571;DHT22;8903;52.220;20.978;2023-06-01T04:26:15;15.20;93.30
17571;DHT22;8903;52.220;20.978;2023-06-01T04:28:44;15.30;93.40
17571;DHT22;8903;52.220;20.978;2023-06-01T04:31:12;15.30;93.40
17571;DHT22;8903;52.220;20.978;2023-06-01T04:33:44;15.30;93.80
17571;DHT22;8903;52.220;20.978;2023-06-01T04:36:13;15.40;93.50
17571;DHT22;8903;52.220;20.978;2023-06-01T04:38:47;15.40;93.70
17571;DHT22;8903;52.220;20.978;2023-06-01T04:41:17;15.40;93.70
17571;DHT22;8903;52.220;20.978;2023-06-01T04:43:46;15.40;93.70
17571;DHT22;8903;52.220;20.978;2023-06-01T04:46:18;15.50;93.80
17571;DHT22;8903;52.220;20.978;2023-06-01T04:48:46;15.50;93.80
17571;DHT22;8903;52.220;20.978;2023-06-01T04:51:15;15.50;93.90
17571;DHT22;8903;52.220;20.978;2023-06-01T04:53:45;15.60;93.80
17571;DHT22;8903;52.220;20.978;2023-06-01T04:56:16;15.70;93.60
17571;DHT22;8903;52.220;20.978;2023-06-01T04:58:45;15.80;93.70
17571;DHT22;8903;52.220;20.978;2023-06-01T05:01:13;15.90;93.50
17571;DHT22;8903;52.220;20.978;2023-06-01T05:03:42;15.90;93.60
17571;DHT22;8903;52.220;20.978;2023-06-01T05:06:10;15.90;93.60
17571;DHT22;8903;52.220;20.978;2023-06-01T05:08:40;16.00;93.70
17571;DHT22;8903;52.220;20.978;2023-06-01T05:11:08;16.10;93.80
17571;DHT22;8903;52.220;20.978;2023-06-01T05:13:37;16.10;93.70
17571;DHT22;8903;52.220;20.978;2023-06-01T05:16:06;16.10;93.70
17571;DHT22;8903;52.220;20.978;2023-06-01T05:18:34;16.20;93.50
17571;DHT22;8903;52.220;20.978;2023-06-01T05:21:02;16.20;93.50
17571;DHT22;8903;52.220;20.978;2023-06-01T05:23:29;16.20;93.70
17571;DHT22;8903;52.220;20.978;2023-06-01T05:25:59;16.30;93.70
17571;DHT22;8903;52.220;20.978;2023-06-01T05:28:31;16.40;93.60
17571;DHT22;8903;52.220;20.978;2023-06-01T05:30:58;16.50;93.30
17571;DHT22;8903;52.220;20.978;2023-06-01T05:33:25;16.60;93.30
17571;DHT22;8903;52.220;20.978;2023-06-01T05:35:53;16.70;93.20
17571;DHT22;8903;52.220;20.978;2023-06-01T05:38:23;16.80;93.20
17571;DHT22;8903;52.220;20.978;2023-06-01T05:40:50;16.90;93.10
17571;DHT22;8903;52.220;20.978;2023-06-01T05:43:19;17.00;92.60
17571;DHT22;8903;52.220;20.978;2023-06-01T05:45:46;17.00;92.10
17571;DHT22;8903;52.220;20.978;2023-06-01T05:48:14;17.10;92.20
17571;DHT22;8903;52.220;20.978;2023-06-01T05:50:46;17.10;92.50
17571;DHT22;8903;52.220;20.978;2023-06-01T05:53:13;17.30;92.70
17571;DHT22;8903;52.220;20.978;2023-06-01T05:55:40;17.30;92.80
17571;DHT22;8903;52.220;20.978;2023-06-01T05:58:07;17.40;92.80
17571;DHT22;8903;52.220;20.978;2023-06-01T06:00:35;17.40;93.00
17571;DHT22;8903;52.220;20.978;2023-06-01T06:03:03;17.50;92.20
17571;DHT22;8903;52.220;20.978;2023-06-01T06:05:30;17.60;92.20
17571;DHT22;8903;52.220;20.978;2023-06-01T06:07:57;17.70;92.50
17571;DHT22;8903;52.220;20.978;2023-06-01T06:10:24;17.70;92.10
17571;DHT22;8903;52.220;20.978;2023-06-01T06:12:51;17.80;92.10
17571;DHT22;8903;52.220;20.978;2023-06-01T06:15:18;17.90;91.90
17571;DHT22;8903;52.220;20.978;2023-06-01T06:17:46;17.90;91.80
17571;DHT22;8903;52.220;20.978;2023-06-01T06:20:13;18.00;91.60
17571;DHT22;8903;52.220;20.978;2023-06-01T06:22:41;18.10;91.30
17571;DHT22;8903;52.220;20.978;2023-06-01T06:25:09;18.10;91.30
17571;DHT22;8903;52.220;20.978;2023-06-01T06:27:37;18.10;91.40
17571;DHT22;8903;52.220;20.978;2023-06-01T06:30:05;18.10;91.30
17571;DHT22;8903;52.220;20.978;2023-06-01T06:32:32;18.20;91.30
17571;DHT22;8903;52.220;20.978;2023-06-01T06:35:02;18.30;90.80
17571;DHT22;8903;52.220;20.978;2023-06-01T06:37:29;18.40;91.10
17571;DHT22;8903;52.220;20.978;2023-06-01T06:39:56;18.50;90.70
17571;DHT22;8903;52.220;20.978;2023-06-01T06:42:24;18.60;91.30
17571;DHT22;8903;52.220;20.978;2023-06-01T06:44:51;18.70;90.50
17571;DHT22;8903;52.220;20.978;2023-06-01T06:47:18;18.90;90.30
17571;DHT22;8903;52.220;20.978;2023-06-01T06:49:45;18.90;90.10
17571;DHT22;8903;52.220;20.978;2023-06-01T06:52:14;19.00;90.00
17571;DHT22;8903;52.220;20.978;2023-06-01T06:54:41;19.10;90.20
17571;DHT22;8903;52.220;20.978;2023-06-01T06:57:08;19.20;89.60
17571;DHT22;8903;52.220;20.978;2023-06-01T06:59:36;19.30;89.20
17571;DHT22;8903;52.220;20.978;2023-06-01T07:02:03;19.40;89.50
17571;DHT22;8903;52.220;20.978;2023-06-01T07:04:30;19.50;88.80
17571;DHT22;8903;52.220;20.978;2023-06-01T07:06:57;19.60;89.10
17571;DHT22;8903;52.220;20.978;2023-06-01T07:09:27;19.70;88.90
17571;DHT22;8903;52.220;20.978;2023-06-01T07:11:54;19.70;89.20
17571;DHT22;8903;52.220;20.978;2023-06-01T07:14:21;19.80;88.30
17571;DHT22;8903;52.220;20.978;2023-06-01T07:16:48;19.90;87.50
17571;DHT22;8903;52.220;20.978;2023-06-01T07:19:15;19.90;87.70
17571;DHT22;8903;52.220;20.978;2023-06-01T07:21:42;20.00;87.20
17571;DHT22;8903;52.220;20.978;2023-06-01T07:24:09;20.10;86.60
17571;DHT22;8903;52.220;20.978;2023-06-01T07:26:38;20.10;86.30
17571;DHT22;8903;52.220;20.978;2023-06-01T07:29:05;20.20;86.10
17571;DHT22;8903;52.220;20.978;2023-06-01T07:31:32;20.30;86.90
17571;DHT22;8903;52.220;20.978;2023-06-01T07:34:00;20.30;87.10
17571;DHT22;8903;52.220;20.978;2023-06-01T07:36:27;20.30;87.20
17571;DHT22;8903;52.220;20.978;2023-06-01T07:39:03;20.40;86.50
17571;DHT22;8903;52.220;20.978;2023-06-01T07:41:32;20.50;86.80
17571;DHT22;8903;52.220;20.978;2023-06-01T07:44:00;20.60;87.40
17571;DHT22;8903;52.220;20.978;2023-06-01T07:46:27;20.60;86.00
17571;DHT22;8903;52.220;20.978;2023-06-01T07:48:55;20.70;86.40
17571;DHT22;8903;52.220;20.978;2023-06-01T07:51:22;20.70;86.30
17571;DHT22;8903;52.220;20.978;2023-06-01T07:53:49;20.80;86.50
17571;DHT22;8903;52.220;20.978;2023-06-01T07:56:16;20.90;86.40
17571;DHT22;8903;52.220;20.978;2023-06-01T07:58:44;20.90;86.50
17571;DHT22;8903;52.220;20.978;2023-06-01T08:01:12;21.00;85.10
17571;DHT22;8903;52.220;20.978;2023-06-01T08:03:42;21.10;84.90
17571;DHT22;8903;52.220;20.978;2023-06-01T08:06:09;21.20;84.40
17571;DHT22;8903;52.220;20.978;2023-06-01T08:08:37;21.20;84.00
17571;DHT22;8903;52.220;20.978;2023-06-01T08:11:04;21.30;83.20
17571;DHT22;8903;52.220;20.978;2023-06-01T08:13:31;21.30;83.50
17571;DHT22;8903;52.220;20.978;2023-06-01T08:16:01;21.40;83.20
17571;DHT22;8903;52.220;20.978;2023-06-01T08:18:30;21.50;83.50
17571;DHT22;8903;52.220;20.978;2023-06-01T08:20:57;21.60;82.30
17571;DHT22;8903;52.220;20.978;2023-06-01T08:23:26;21.60;80.90
17571;DHT22;8903;52.220;20.978;2023-06-01T08:25:53;21.60;81.90
17571;DHT22;8903;52.220;20.978;2023-06-01T08:28:20;21.50;83.00
17571;DHT22;8903;52.220;20.978;2023-06-01T08:30:47;21.60;82.50
17571;DHT22;8903;52.220;20.978;2023-06-01T08:33:14;21.60;81.90
17571;DHT22;8903;52.220;20.978;2023-06-01T08:35:43;21.70;82.00
17571;DHT22;8903;52.220;20.978;2023-06-01T08:38:10;21.80;81.90
17571;DHT22;8903;52.220;20.978;2023-06-01T08:40:37;21.80;82.60
17571;DHT22;8903;52.220;20.978;2023-06-01T08:43:12;21.80;82.70
17571;DHT22;8903;52.220;20.978;2023-06-01T08:45:41;21.90;81.80
17571;DHT22;8903;52.220;20.978;2023-06-01T08:48:14;22.00;81.60
17571;DHT22;8903;52.220;20.978;2023-06-01T08:50:42;22.10;81.30
17571;DHT22;8903;52.220;20.978;2023-06-01T08:53:10;22.20;81.60
17571;DHT22;8903;52.220;20.978;2023-06-01T08:55:37;22.30;82.10
17571;DHT22;8903;52.220;20.978;2023-06-01T08:58:05;22.40;82.70
17571;DHT22;8903;52.220;20.978;2023-06-01T09:00:32;22.20;81.60
17571;DHT22;8903;52.220;20.978;2023-06-01T09:03:00;22.20;82.20
17571;DHT22;8903;52.220;20.978;2023-06-01T09:05:27;22.10;82.60
17571;DHT22;8903;52.220;20.978;2023-06-01T09:07:56;22.00;82.90
17571;DHT22;8903;52.220;20.978;2023-06-01T09:10:23;21.90;83.50
17571;DHT22;8903;52.220;20.978;2023-06-01T09:12:53;21.90;83.50
17571;DHT22;8903;52.220;20.978;2023-06-01T09:15:21;21.90;84.10
17571;DHT22;8903;52.220;20.978;2023-06-01T09:17:50;22.10;84.00
17571;DHT22;8903;52.220;20.978;2023-06-01T09:20:23;22.20;82.50
17571;DHT22;8903;52.220;20.978;2023-06-01T09:22:51;22.20;83.20
17571;DHT22;8903;52.220;20.978;2023-06-01T09:25:24;22.30;82.80
17571;DHT22;8903;52.220;20.978;2023-06-01T09:27:53;22.50;82.20
17571;DHT22;8903;52.220;20.978;2023-06-01T09:30:22;22.50;82.20
17571;DHT22;8903;52.220;20.978;2023-06-01T09:32:50;22.60;82.80
17571;DHT22;8903;52.220;20.978;2023-06-01T09:35:37;22.70;81.60
17571;DHT22;8903;52.220;20.978;2023-06-01T09:38:04;22.80;81.00
17571;DHT22;8903;52.220;20.978;2023-06-01T09:40:33;22.80;80.30
17571;DHT22;8903;52.220;20.978;2023-06-01T09:43:01;22.80;79.50
17571;DHT22;8903;52.220;20.978;2023-06-01T09:45:30;22.80;80.60
17571;DHT22;8903;52.220;20.978;2023-06-01T09:48:15;22.90;81.10
17571;DHT22;8903;52.220;20.978;2023-06-01T09:50:43;23.00;81.90
17571;DHT22;8903;52.220;20.978;2023-06-01T09:53:10;22.90;83.10
17571;DHT22;8903;52.220;20.978;2023-06-01T09:55:57;22.80;82.70
17571;DHT22;8903;52.220;20.978;2023-06-01T09:58:56;22.90;83.10
17571;DHT22;8903;52.220;20.978;2023-06-01T10:01:28;22.90;82.20
17571;DHT22;8903;52.220;20.978;2023-06-01T10:03:56;23.10;82.00
17571;DHT22;8903;52.220;20.978;2023-06-01T10:06:25;23.20;81.60
17571;DHT22;8903;52.220;20.978;2023-06-01T10:08:55;23.30;81.60
17571;DHT22;8903;52.220;20.978;2023-06-01T10:11:24;23.50;82.40
17571;DHT22;8903;52.220;20.978;2023-06-01T10:13:51;23.50;81.20
17571;DHT22;8903;52.220;20.978;2023-06-01T10:16:18;23.60;81.40
17571;DHT22;8903;52.220;20.978;2023-06-01T10:18:45;23.60;81.40
17571;DHT22;8903;52.220;20.978;2023-06-01T10:21:14;23.80;81.90
17571;DHT22;8903;52.220;20.978;2023-06-01T10:23:41;23.80;82.40
17571;DHT22;8903;52.220;20.978;2023-06-01T10:26:12;23.90;82.00
17571;DHT22;8903;52.220;20.978;2023-06-01T10:28:45;23.90;83.20
17571;DHT22;8903;52.220;20.978;2023-06-01T10:31:34;23.90;82.70
17571;DHT22;8903;52.220;20.978;2023-06-01T10:34:02;24.00;82.00
17571;DHT22;8903;52.220;20.978;2023-06-01T10:39:36;23.90;80.80
17571;DHT22;8903;52.220;20.978;2023-06-01T10:42:34;23.70;81.00
17571;DHT22;8903;52.220;20.978;2023-06-01T10:45:05;23.60;81.80
17571;DHT22;8903;52.220;20.978;2023-06-01T10:47:45;23.60;81.90
17571;DHT22;8903;52.220;20.978;2023-06-01T10:50:17;23.80;80.90
17571;DHT22;8903;52.220;20.978;2023-06-01T10:52:45;24.00;79.90
17571;DHT22;8903;52.220;20.978;2023-06-01T10:55:24;24.00;79.60
17571;DHT22;8903;52.220;20.978;2023-06-01T10:57:51;24.00;80.70
17571;DHT22;8903;52.220;20.978;2023-06-01T11:00:21;24.10;80.10
17571;DHT22;8903;52.220;20.978;2023-06-01T11:02:52;24.20;80.10
17571;DHT22;8903;52.220;20.978;2023-06-01T11:05:42;24.00;79.50
17571;DHT22;8903;52.220;20.978;2023-06-01T11:08:50;23.90;80.20
17571;DHT22;8903;52.220;20.978;2023-06-01T11:11:18;24.10;80.10
17571;DHT22;8903;52.220;20.978;2023-06-01T11:14:09;24.30;80.00
17571;DHT22;8903;52.220;20.978;2023-06-01T11:16:38;24.50;79.70
17571;DHT22;8903;52.220;20.978;2023-06-01T11:19:07;24.60;79.80
17571;DHT22;8903;52.220;20.978;2023-06-01T11:21:36;24.70;79.70
17571;DHT22;8903;52.220;20.978;2023-06-01T11:24:09;25.40;77.40
17571;DHT22;8903;52.220;20.978;2023-06-01T11:26:38;27.00;74.50
17571;DHT22;8903;52.220;20.978;2023-06-01T11:29:08;27.90;73.20
17571;DHT22;8903;52.220;20.978;2023-06-01T11:31:40;28.30;72.30
17571;DHT22;8903;52.220;20.978;2023-06-01T11:34:08;27.80;72.70
17571;DHT22;8903;52.220;20.978;2023-06-01T11:36:37;27.70;74.10
17571;DHT22;8903;52.220;20.978;2023-06-01T11:39:04;27.80;73.80
17571;DHT22;8903;52.220;20.978;2023-06-01T11:41:36;27.80;74.40
17571;DHT22;8903;52.220;20.978;2023-06-01T11:44:03;27.90;73.90
17571;DHT22;8903;52.220;20.978;2023-06-01T11:46:30;27.20;74.70
17571;DHT22;8903;52.220;20.978;2023-06-01T11:49:03;27.10;75.30
17571;DHT22;8903;52.220;20.978;2023-06-01T11:51:32;27.40;74.70
17571;DHT22;8903;52.220;20.978;2023-06-01T11:54:00;27.80;74.60
17571;DHT22;8903;52.220;20.978;2023-06-01T11:56:29;28.20;73.50
17571;DHT22;8903;52.220;20.978;2023-06-01T11:59:00;27.80;73.30
17571;DHT22;8903;52.220;20.978;2023-06-01T12:01:27;27.90;73.40
17571;DHT22;8903;52.220;20.978;2023-06-01T12:03:55;28.20;72.80
17571;DHT22;8903;52.220;20.978;2023-06-01T12:06:25;28.40;72.60
17571;DHT22;8903;52.220;20.978;2023-06-01T12:08:53;28.40;72.70
17571;DHT22;8903;52.220;20.978;2023-06-01T12:11:23;28.80;73.40
17571;DHT22;8903;52.220;20.978;2023-06-01T12:13:52;29.30;70.00
17571;DHT22;8903;52.220;20.978;2023-06-01T12:16:20;29.20;70.70
17571;DHT22;8903;52.220;20.978;2023-06-01T12:18:47;29.30;70.50
17571;DHT22;8903;52.220;20.978;2023-06-01T12:21:15;29.20;70.20
17571;DHT22;8903;52.220;20.978;2023-06-01T12:23:49;29.40;69.60
17571;DHT22;8903;52.220;20.978;2023-06-01T12:26:17;29.20;69.10
17571;DHT22;8903;52.220;20.978;2023-06-01T12:28:48;29.00;69.70
17571;DHT22;8903;52.220;20.978;2023-06-01T12:31:16;29.10;70.20
17571;DHT22;8903;52.220;20.978;2023-06-01T12:33:45;29.00;70.40
17571;DHT22;8903;52.220;20.978;2023-06-01T12:36:28;29.10;70.60
17571;DHT22;8903;52.220;20.978;2023-06-01T12:38:59;29.10;69.20
17571;DHT22;8903;52.220;20.978;2023-06-01T12:41:26;28.70;70.20
17571;DHT22;8903;52.220;20.978;2023-06-01T12:43:54;28.60;71.10
17571;DHT22;8903;52.220;20.978;2023-06-01T12:46:25;28.80;70.50
17571;DHT22;8903;52.220;20.978;2023-06-01T12:48:53;29.00;70.20
17571;DHT22;8903;52.220;20.978;2023-06-01T12:51:20;28.40;71.30
17571;DHT22;8903;52.220;20.978;2023-06-01T12:53:47;28.40;71.70
17571;DHT22;8903;52.220;20.978;2023-06-01T12:56:16;28.60;70.00
17571;DHT22;8903;52.220;20.978;2023-06-01T12:58:43;28.80;68.90
17571;DHT22;8903;52.220;20.978;2023-06-01T13:01:10;28.80;69.00
17571;DHT22;8903;52.220;20.978;2023-06-01T13:03:37;28.90;69.70
17571;DHT22;8903;52.220;20.978;2023-06-01T13:06:05;29.00;69.50
17571;DHT22;8903;52.220;20.978;2023-06-01T13:08:32;28.90;68.00
17571;DHT22;8903;52.220;20.978;2023-06-01T13:10:59;28.50;68.50
17571;DHT22;8903;52.220;20.978;2023-06-01T13:13:28;28.20;69.40
17571;DHT22;8903;52.220;20.978;2023-06-01T13:15:55;28.20;69.80
17571;DHT22;8903;52.220;20.978;2023-06-01T13:18:22;28.10;70.90
17571;DHT22;8903;52.220;20.978;2023-06-01T13:20:50;28.40;70.50
17571;DHT22;8903;52.220;20.978;2023-06-01T13:23:17;28.70;70.30
17571;DHT22;8903;52.220;20.978;2023-06-01T13:25:45;28.80;70.60
17571;DHT22;8903;52.220;20.978;2023-06-01T13:28:12;28.50;70.70
17571;DHT22;8903;52.220;20.978;2023-06-01T13:30:40;28.10;70.90
17571;DHT22;8903;52.220;20.978;2023-06-01T13:33:08;27.90;71.50
17571;DHT22;8903;52.220;20.978;2023-06-01T13:35:35;28.00;70.10
17571;DHT22;8903;52.220;20.978;2023-06-01T13:38:02;27.80;69.30
17571;DHT22;8903;52.220;20.978;2023-06-01T13:40:29;27.80;68.90
17571;DHT22;8903;52.220;20.978;2023-06-01T13:42:58;28.10;69.40
17571;DHT22;8903;52.220;20.978;2023-06-01T13:45:25;28.40;69.50
17571;DHT22;8903;52.220;20.978;2023-06-01T13:47:53;28.60;68.90
17571;DHT22;8903;52.220;20.978;2023-06-01T13:50:21;28.80;68.60
17571;DHT22;8903;52.220;20.978;2023-06-01T13:52:48;28.90;68.30
17571;DHT22;8903;52.220;20.978;2023-06-01T13:55:15;28.60;69.20
17571;DHT22;8903;52.220;20.978;2023-06-01T13:57:43;28.70;69.10
17571;DHT22;8903;52.220;20.978;2023-06-01T14:00:12;28.80;69.10
17571;DHT22;8903;52.220;20.978;2023-06-01T14:02:42;29.10;68.60
17571;DHT22;8903;52.220;20.978;2023-06-01T14:05:10;29.40;68.40
17571;DHT22;8903;52.220;20.978;2023-06-01T14:07:40;29.70;67.90
17571;DHT22;8903;52.220;20.978;2023-06-01T14:10:07;29.60;67.60
17571;DHT22;8903;52.220;20.978;2023-06-01T14:12:34;29.90;67.50
17571;DHT22;8903;52.220;20.978;2023-06-01T14:15:01;29.40;69.10
17571;DHT22;8903;52.220;20.978;2023-06-01T14:17:29;29.30;68.30
17571;DHT22;8903;52.220;20.978;2023-06-01T14:19:56;29.30;68.80
17571;DHT22;8903;52.220;20.978;2023-06-01T14:22:24;29.40;68.60
17571;DHT22;8903;52.220;20.978;2023-06-01T14:24:51;29.40;69.00
17571;DHT22;8903;52.220;20.978;2023-06-01T14:27:18;29.80;69.40
17571;DHT22;8903;52.220;20.978;2023-06-01T14:29:45;29.50;69.30
17571;DHT22;8903;52.220;20.978;2023-06-01T14:32:12;29.10;69.90
17571;DHT22;8903;52.220;20.978;2023-06-01T14:34:39;29.00;69.70
17571;DHT22;8903;52.220;20.978;2023-06-01T14:37:06;29.00;69.90
17571;DHT22;8903;52.220;20.978;2023-06-01T14:39:37;29.10;70.40
17571;DHT22;8903;52.220;20.978;2023-06-01T14:42:05;29.30;69.10
17571;DHT22;8903;52.220;20.978;2023-06-01T14:44:32;29.20;68.00
17571;DHT22;8903;52.220;20.978;2023-06-01T14:46:59;28.70;68.60
17571;DHT22;8903;52.220;20.978;2023-06-01T14:49:27;28.60;68.70
17571;DHT22;8903;52.220;20.978;2023-06-01T14:51:54;28.70;68.90
17571;DHT22;8903;52.220;20.978;2023-06-01T14:54:21;29.00;68.00
17571;DHT22;8903;52.220;20.978;2023-06-01T14:56:49;29.30;68.40
17571;DHT22;8903;52.220;20.978;2023-06-01T14:59:17;29.40;68.30
17571;DHT22;8903;52.220;20.978;2023-06-01T15:01:44;29.50;69.00
17571;DHT22;8903;52.220;20.978;2023-06-01T15:04:11;28.70;69.80
17571;DHT22;8903;52.220;20.978;2023-06-01T15:06:38;28.60;70.60
17571;DHT22;8903;52.220;20.978;2023-06-01T15:09:05;28.70;70.90
17571;DHT22;8903;52.220;20.978;2023-06-01T15:11:32;28.50;71.30
17571;DHT22;8903;52.220;20.978;2023-06-01T15:14:00;28.10;71.90
17571;DHT22;8903;52.220;20.978;2023-06-01T15:16:27;28.10;72.10
17571;DHT22;8903;52.220;20.978;2023-06-01T15:18:54;28.10;72.30
17571;DHT22;8903;52.220;20.978;2023-06-01T15:21:22;28.10;72.80
17571;DHT22;8903;52.220;20.978;2023-06-01T15:23:49;28.50;72.70
17571;DHT22;8903;52.220;20.978;2023-06-01T15:26:16;28.60;71.40
17571;DHT22;8903;52.220;20.978;2023-06-01T15:28:43;28.40;71.80
17571;DHT22;8903;52.220;20.978;2023-06-01T15:31:11;28.20;72.50
17571;DHT22;8903;52.220;20.978;2023-06-01T15:33:38;27.90;73.20
17571;DHT22;8903;52.220;20.978;2023-06-01T15:36:06;27.60;73.00
17571;DHT22;8903;52.220;20.978;2023-06-01T15:38:33;27.30;73.30
17571;DHT22;8903;52.220;20.978;2023-06-01T15:41:01;26.90;74.20
17571;DHT22;8903;52.220;20.978;2023-06-01T15:43:28;26.80;76.20
17571;DHT22;8903;52.220;20.978;2023-06-01T15:45:55;26.60;76.40